Time;durP1;ratioP1;P1;durP2;ratioP2;P2;SDS_P1;SDS_P2;PMS_P1;PMS_P2;Temp;Humidity;BMP_temperature;BMP_pressure;BME280_temperature;BME280_humidity;BME280_pressure;Samples;Min_cycle;Max_cycle;Signal;HPM_P1;HPM_P2
2023/05/01 00:00:09;;;;;;;7.15;3.25;;;10.40;77.80;;;;;;5031822;28;20400;-81
2023/05/01 00:02:35;;;;;;;6.30;3.42;;;10.40;77.00;;;;;;5031611;28;20108;-76
2023/05/01 00:05:03;;;;;;;11.35;3.42;;;10.40;77.40;;;;;;5031706;28;20112;-77
2023/05/01 00:07:30;;;;;;;8.77;3.20;;;10.30;79.20;;;;;;5032088;28;20028;-77
2023/05/01 00:09:56;;;;;;;10.63;3.70;;;10.20;79.70;;;;;;5031515;28;20033;-78
2023/05/01 00:12:22;;;;;;;11.05;3.80;;;10.20;80.10;;;;;;5014075;28;20025;-75
2023/05/01 00:14:48;;;;;;;9.65;3.38;;;10.20;80.60;;;;;;5031183;28;20044;-79
2023/05/01 00:17:14;;;;;;;9.10;3.72;;;10.20;80.20;;;;;;5031729;28;20038;-79
2023/05/01 00:19:40;;;;;;;10.02;3.60;;;10.20;80.30;;;;;;5014557;28;20420;-78
2023/05/01 00:22:06;;;;;;;9.30;2.90;;;10.20;80.60;;;;;;5031483;28;20033;-76
2023/05/01 00:24:32;;;;;;;6.63;3.63;;;10.10;80.80;;;;;;5031104;28;20040;-77
2023/05/01 00:26:58;;;;;;;10.82;3.33;;;10.00;81.00;;;;;;5031312;28;20238;-78
2023/05/01 00:29:24;;;;;;;7.13;3.22;;;10.00;80.40;;;;;;5010385;28;20041;-80
2023/05/01 00:31:49;;;;;;;9.13;3.75;;;9.90;82.10;;;;;;5011882;28;20092;-82
2023/05/01 00:34:15;;;;;;;15.95;3.85;;;10.00;81.80;;;;;;5011389;28;20029;-76
2023/05/01 00:36:41;;;;;;;10.00;3.55;;;9.90;82.20;;;;;;5011943;28;20068;-80
2023/05/01 00:39:07;;;;;;;8.77;3.83;;;9.90;81.90;;;;;;5011303;28;20030;-76
2023/05/01 00:41:36;;;;;;;9.48;3.10;;;10.00;80.70;;;;;;5011395;28;20096;-77
2023/05/01 00:44:02;;;;;;;10.00;3.40;;;9.90;81.70;;;;;;5011371;28;20042;-78
2023/05/01 00:46:29;;;;;;;14.77;3.72;;;10.00;80.30;;;;;;5011876;28;20014;-81
2023/05/01 00:48:56;;;;;;;9.85;3.17;;;9.90;81.00;;;;;;5011362;28;20030;-80
2023/05/01 00:51:22;;;;;;;9.88;3.40;;;9.80;81.60;;;;;;5011448;28;20034;-81
2023/05/01 00:53:48;;;;;;;8.20;3.38;;;9.80;81.60;;;;;;5010461;28;20064;-82
2023/05/01 00:56:15;;;;;;;13.82;3.83;;;9.80;82.20;;;;;;5011521;28;20037;-76
2023/05/01 00:58:41;;;;;;;8.10;3.67;;;9.80;82.60;;;;;;5010429;28;20367;-76
2023/05/01 01:01:09;;;;;;;12.35;3.80;;;9.90;82.70;;;;;;5011160;28;20037;-80
2023/05/01 01:03:35;;;;;;;8.93;3.63;;;9.90;81.80;;;;;;5011490;28;20034;-81
2023/05/01 01:06:14;;;;;;;11.70;3.63;;;9.90;82.80;;;;;;5002384;28;20053;-81
2023/05/01 01:08:52;;;;;;;9.80;3.75;;;9.80;83.20;;;;;;4991340;28;20040;-76
2023/05/01 01:11:41;;;;;;;8.93;3.42;;;9.80;82.80;;;;;;4991484;28;20095;-83
2023/05/01 01:14:26;;;;;;;16.85;4.03;;;9.70;83.50;;;;;;4991541;28;20041;-81
2023/05/01 01:17:05;;;;;;;10.00;3.67;;;9.70;83.50;;;;;;4990942;28;20030;-81
2023/05/01 01:20:09;;;;;;;10.88;4.05;;;9.70;83.00;;;;;;5011004;28;20111;-81
2023/05/01 01:22:38;;;;;;;13.25;3.92;;;9.70;82.50;;;;;;4995728;28;20439;-83
2023/05/01 01:25:29;;;;;;;12.50;3.97;;;9.80;82.00;;;;;;5010841;28;20026;-80
2023/05/01 01:28:01;;;;;;;9.73;3.95;;;9.80;81.90;;;;;;5014973;28;20046;-82
2023/05/01 01:30:46;;;;;;;10.75;3.90;;;9.70;82.20;;;;;;5031076;28;20105;-81
2023/05/01 01:33:47;;;;;;;10.43;3.78;;;9.80;81.80;;;;;;5016937;28;20033;-78
2023/05/01 01:36:21;;;;;;;8.75;3.50;;;9.80;82.30;;;;;;5033556;28;20026;-80
2023/05/01 01:39:01;;;;;;;10.98;4.05;;;9.70;82.20;;;;;;5034297;28;20041;-79
2023/05/01 01:41:32;;;;;;;12.05;4.57;;;9.70;82.50;;;;;;5034445;28;20033;-77
2023/05/01 01:44:08;;;;;;;11.23;3.75;;;9.60;82.60;;;;;;5016717;28;20061;-77
2023/05/01 01:46:37;;;;;;;11.18;4.55;;;9.50;83.70;;;;;;5035029;28;20028;-81
2023/05/01 01:49:06;;;;;;;13.35;4.15;;;9.40;84.50;;;;;;5034087;28;20032;-76
2023/05/01 01:51:35;;;;;;;103.32;46.92;;;9.50;84.80;;;;;;5016459;28;20037;-80
2023/05/01 01:54:03;;;;;;;19.75;8.07;;;9.30;86.30;;;;;;5016614;28;20550;-81
2023/05/01 01:56:31;;;;;;;13.02;4.53;;;9.30;87.30;;;;;;5034497;28;20360;-80
2023/05/01 01:59:00;;;;;;;8.95;4.00;;;9.40;87.30;;;;;;5034853;28;20032;-79
2023/05/01 02:01:27;;;;;;;10.55;4.18;;;9.30;88.00;;;;;;5034814;28;20417;-77
2023/05/01 02:03:54;;;;;;;13.05;4.38;;;9.30;87.90;;;;;;5034147;28;20022;-77
2023/05/01 02:06:22;;;;;;;10.40;4.22;;;9.30;88.40;;;;;;5034167;28;20120;-82
2023/05/01 02:08:50;;;;;;;15.10;4.10;;;9.10;89.50;;;;;;5034052;28;20033;-78
2023/05/01 02:11:19;;;;;;;10.93;4.00;;;9.10;89.40;;;;;;5034002;28;20041;-76
2023/05/01 02:13:46;;;;;;;14.63;4.93;;;9.20;89.00;;;;;;5034377;28;20475;-76
2023/05/01 02:16:13;;;;;;;15.65;3.78;;;9.30;88.10;;;;;;5034350;28;20041;-79
2023/05/01 02:18:39;;;;;;;8.57;4.03;;;9.30;88.80;;;;;;5034047;28;20029;-75
2023/05/01 02:21:06;;;;;;;11.25;4.35;;;9.20;89.50;;;;;;5016385;28;20033;-78
2023/05/01 02:23:32;;;;;;;9.10;4.28;;;9.10;89.60;;;;;;5033521;28;20033;-79
2023/05/01 02:26:01;;;;;;;8.93;4.65;;;9.10;89.60;;;;;;5016248;28;20029;-77
2023/05/01 02:28:29;;;;;;;11.40;4.10;;;9.10;89.00;;;;;;5034147;28;20140;-75
2023/05/01 02:30:56;;;;;;;8.50;4.10;;;9.10;88.50;;;;;;5033915;28;20081;-79
2023/05/01 02:33:22;;;;;;;10.68;4.28;;;9.20;88.20;;;;;;5033594;28;20032;-77
2023/05/01 02:35:48;;;;;;;12.25;4.82;;;9.30;87.50;;;;;;5033488;28;20040;-79
2023/05/01 02:38:15;;;;;;;8.63;3.78;;;9.30;87.60;;;;;;5033229;28;20360;-79
2023/05/01 02:40:45;;;;;;;9.55;4.22;;;9.20;88.80;;;;;;5034547;28;20155;-77
2023/05/01 02:43:15;;;;;;;13.15;3.90;;;9.20;89.20;;;;;;5015775;28;20037;-78
2023/05/01 02:45:42;;;;;;;11.20;3.88;;;9.30;88.80;;;;;;5015972;28;20049;-80
2023/05/01 02:48:12;;;;;;;9.75;4.25;;;9.20;89.50;;;;;;5015685;28;20586;-74
2023/05/01 02:50:41;;;;;;;14.60;4.68;;;9.10;90.00;;;;;;5015658;28;20379;-79
2023/05/01 02:53:08;;;;;;;12.13;4.35;;;9.10;89.90;;;;;;5033436;28;20440;-77
2023/05/01 02:55:35;;;;;;;14.38;4.38;;;8.90;90.10;;;;;;5033622;28;20026;-78
2023/05/01 02:58:01;;;;;;;10.15;4.35;;;8.80;90.30;;;;;;5033465;28;20039;-78
2023/05/01 03:00:27;;;;;;;11.98;4.55;;;8.80;90.30;;;;;;5015631;28;20105;-81
2023/05/01 03:02:53;;;;;;;8.63;4.35;;;8.80;90.20;;;;;;5032823;28;20551;-81
2023/05/01 03:05:19;;;;;;;11.77;4.20;;;8.80;89.50;;;;;;5032795;28;20030;-80
2023/05/01 03:07:46;;;;;;;19.13;5.43;;;8.90;89.30;;;;;;5033293;28;20352;-79
2023/05/01 03:10:12;;;;;;;12.97;4.50;;;8.80;88.80;;;;;;5032892;28;20034;-82
2023/05/01 03:12:38;;;;;;;14.05;4.55;;;8.90;89.00;;;;;;5032947;28;20022;-81
2023/05/01 03:15:04;;;;;;;10.65;5.00;;;8.90;89.50;;;;;;5033130;28;20040;-80
2023/05/01 03:17:30;;;;;;;14.13;4.80;;;8.80;89.50;;;;;;5032656;28;20068;-81
2023/05/01 03:19:56;;;;;;;16.33;5.20;;;8.80;89.30;;;;;;5032725;28;20053;-80
2023/05/01 03:22:21;;;;;;;17.13;5.55;;;8.80;89.30;;;;;;5034176;28;20507;-81
2023/05/01 03:24:48;;;;;;;10.65;4.32;;;8.80;89.10;;;;;;5014738;28;20033;-82
2023/05/01 03:27:14;;;;;;;13.48;5.60;;;8.80;89.10;;;;;;5033123;28;20029;-80
2023/05/01 03:29:40;;;;;;;11.43;5.28;;;8.80;89.70;;;;;;5032373;28;20501;-80
2023/05/01 03:32:06;;;;;;;17.40;5.25;;;8.70;89.70;;;;;;5014786;28;20327;-78
2023/05/01 03:34:31;;;;;;;14.77;5.28;;;8.80;89.40;;;;;;5032885;28;20013;-79
2023/05/01 03:36:57;;;;;;;15.95;5.80;;;8.80;89.80;;;;;;5032564;28;20096;-79
2023/05/01 03:39:22;;;;;;;15.77;5.53;;;8.80;90.10;;;;;;5032133;28;20527;-80
2023/05/01 03:41:48;;;;;;;15.50;4.40;;;8.80;90.20;;;;;;5015048;28;20129;-78
2023/05/01 03:44:14;;;;;;;11.95;5.47;;;8.70;90.40;;;;;;5032137;28;20049;-77
2023/05/01 03:46:40;;;;;;;21.13;5.78;;;8.60;91.10;;;;;;5032801;28;20475;-80
2023/05/01 03:49:06;;;;;;;13.93;5.47;;;8.70;90.70;;;;;;5013890;28;20025;-77
2023/05/01 03:51:32;;;;;;;14.70;5.35;;;8.60;90.60;;;;;;5032055;28;20029;-81
2023/05/01 03:53:58;;;;;;;17.58;5.88;;;8.60;90.60;;;;;;5032087;28;20529;-79
2023/05/01 03:56:24;;;;;;;10.63;5.13;;;8.70;90.50;;;;;;5032164;28;20144;-77
2023/05/01 03:58:51;;;;;;;11.82;5.10;;;8.70;90.40;;;;;;5014980;28;20043;-76
2023/05/01 04:01:17;;;;;;;13.32;5.10;;;8.60;90.90;;;;;;5031677;28;20423;-75
2023/05/01 04:03:43;;;;;;;15.90;5.20;;;8.50;91.30;;;;;;5031794;28;20030;-76
2023/05/01 04:06:09;;;;;;;15.07;4.88;;;8.50;91.30;;;;;;5031573;28;20026;-76
2023/05/01 04:08:34;;;;;;;15.85;6.05;;;8.60;91.20;;;;;;5014017;28;20052;-75
2023/05/01 04:11:00;;;;;;;14.10;5.53;;;8.60;91.00;;;;;;5031352;28;20029;-80
2023/05/01 04:13:26;;;;;;;16.23;5.70;;;8.60;91.00;;;;;;5032074;28;20125;-79
2023/05/01 04:15:54;;;;;;;13.35;5.72;;;8.60;90.70;;;;;;5031565;28;20459;-75
2023/05/01 04:18:19;;;;;;;11.18;4.72;;;8.70;90.80;;;;;;5031394;28;20025;-77
2023/05/01 04:20:45;;;;;;;17.30;4.80;;;8.70;91.20;;;;;;5032127;28;20102;-84
2023/05/01 04:23:11;;;;;;;16.83;5.45;;;8.50;91.80;;;;;;5031469;28;20029;-80
2023/05/01 04:25:37;;;;;;;13.90;5.25;;;8.50;91.80;;;;;;5032263;28;20025;-78
2023/05/01 04:28:03;;;;;;;13.25;5.70;;;8.60;91.50;;;;;;5013812;28;20025;-78
2023/05/01 04:30:30;;;;;;;12.93;4.90;;;8.50;91.90;;;;;;5013533;28;20132;-77
2023/05/01 04:32:57;;;;;;;9.68;5.35;;;8.50;91.40;;;;;;5031153;28;20047;-75
2023/05/01 04:35:23;;;;;;;13.70;4.97;;;8.50;92.10;;;;;;5013870;28;20036;-74
2023/05/01 04:37:49;;;;;;;11.30;5.00;;;8.50;91.80;;;;;;5031520;28;20022;-77
2023/05/01 04:40:15;;;;;;;11.50;5.18;;;8.40;92.20;;;;;;5030971;28;20641;-76
2023/05/01 04:42:41;;;;;;;11.45;5.22;;;8.40;92.50;;;;;;5031026;28;20279;-76
2023/05/01 04:45:07;;;;;;;13.70;4.88;;;8.50;92.70;;;;;;5031048;28;20363;-73
2023/05/01 04:47:32;;;;;;;20.08;5.65;;;8.30;92.90;;;;;;5030920;28;20128;-75
2023/05/01 04:49:58;;;;;;;10.95;5.10;;;8.40;92.90;;;;;;5013334;28;20037;-74
2023/05/01 04:52:24;;;;;;;12.18;5.38;;;8.40;92.90;;;;;;5031697;28;20115;-77
2023/05/01 04:54:49;;;;;;;10.80;5.05;;;8.50;92.50;;;;;;5030713;28;20029;-73
2023/05/01 04:57:15;;;;;;;14.68;5.78;;;8.60;92.20;;;;;;5031155;28;20044;-75
2023/05/01 04:59:42;;;;;;;16.58;5.32;;;8.60;92.10;;;;;;5030155;28;20039;-73
2023/05/01 05:02:07;;;;;;;11.18;5.13;;;8.60;92.60;;;;;;5030409;28;20017;-75
2023/05/01 05:04:33;;;;;;;13.43;5.22;;;8.70;92.80;;;;;;5031197;28;20024;-77
2023/05/01 05:06:59;;;;;;;14.95;4.88;;;8.70;92.80;;;;;;5030664;28;20480;-74
2023/05/01 05:09:25;;;;;;;15.32;4.95;;;8.70;93.10;;;;;;5030645;28;20037;-72
2023/05/01 05:11:50;;;;;;;15.63;5.20;;;8.70;92.40;;;;;;5030807;28;20034;-74
2023/05/01 05:14:16;;;;;;;13.43;5.82;;;8.80;92.60;;;;;;5013048;28;20117;-73
2023/05/01 05:16:42;;;;;;;12.82;5.07;;;8.80;92.60;;;;;;5031069;28;20040;-76
2023/05/01 05:19:08;;;;;;;12.35;5.20;;;8.90;92.70;;;;;;5030505;28;20037;-74
2023/05/01 05:21:34;;;;;;;14.43;4.93;;;9.00;91.80;;;;;;5030718;28;20022;-76
2023/05/01 05:24:00;;;;;;;8.88;4.55;;;9.20;91.80;;;;;;5030379;28;20083;-76
2023/05/01 05:26:25;;;;;;;15.65;5.40;;;9.10;92.00;;;;;;5030424;28;20426;-74
2023/05/01 05:28:51;;;;;;;16.38;5.53;;;9.10;92.00;;;;;;5030718;28;20041;-77
2023/05/01 05:31:17;;;;;;;16.40;6.90;;;9.20;91.90;;;;;;5030421;28;20129;-76
2023/05/01 05:33:43;;;;;;;10.20;4.85;;;9.10;91.60;;;;;;5030508;28;20033;-76
2023/05/01 05:36:09;;;;;;;11.77;4.82;;;9.20;91.90;;;;;;5030414;28;20037;-74
2023/05/01 05:38:35;;;;;;;14.77;5.57;;;9.30;91.30;;;;;;5030339;28;20033;-77
2023/05/01 05:41:01;;;;;;;15.73;6.10;;;9.40;91.10;;;;;;5013000;28;20378;-75
2023/05/01 05:43:27;;;;;;;18.33;4.88;;;9.40;91.10;;;;;;5030880;28;20021;-73
2023/05/01 05:46:00;;;;;;;14.57;5.75;;;9.50;90.70;;;;;;5030203;28;20033;-76
2023/05/01 05:48:26;;;;;;;11.90;5.57;;;9.60;90.60;;;;;;5030275;28;20037;-73
2023/05/01 05:50:52;;;;;;;15.60;5.47;;;9.70;90.50;;;;;;5030091;28;20094;-73
2023/05/01 05:53:18;;;;;;;15.40;5.53;;;9.80;90.40;;;;;;5030242;28;20037;-75
2023/05/01 05:55:46;;;;;;;11.95;4.88;;;9.90;90.10;;;;;;5030928;28;20037;-72
2023/05/01 05:58:21;;;;;;;15.43;5.65;;;10.00;88.60;;;;;;5030171;28;20253;-75
2023/05/01 06:00:48;;;;;;;12.82;5.65;;;10.00;88.70;;;;;;5030289;28;20040;-80
2023/05/01 06:03:15;;;;;;;12.55;5.15;;;10.00;88.70;;;;;;5030105;28;20044;-78
2023/05/01 06:05:43;;;;;;;17.40;4.88;;;10.10;88.40;;;;;;5030110;28;20459;-79
2023/05/01 06:08:10;;;;;;;8.50;4.55;;;10.20;88.20;;;;;;5030067;28;20037;-79
2023/05/01 06:10:38;;;;;;;14.85;5.97;;;10.30;88.20;;;;;;5030289;28;20032;-76
2023/05/01 06:13:05;;;;;;;;;;;10.50;87.50;;;;;;5033545;28;20052;-78
2023/05/01 06:15:30;;;;;;;12.70;4.47;;;10.60;87.10;;;;;;5016284;28;19919;-80
2023/05/01 06:17:56;;;;;;;9.93;4.10;;;10.70;86.60;;;;;;5016274;28;20030;-74
2023/05/01 06:20:22;;;;;;;14.10;4.70;;;10.90;86.00;;;;;;5016457;28;20061;-79
2023/05/01 06:22:47;;;;;;;11.02;4.80;;;11.00;85.70;;;;;;5016647;28;20032;-75
2023/05/01 06:25:13;;;;;;;14.45;4.47;;;11.00;85.40;;;;;;5016096;28;20029;-74
2023/05/01 06:27:39;;;;;;;9.60;4.60;;;11.10;85.00;;;;;;5015745;28;20419;-79
2023/05/01 06:30:06;;;;;;;8.35;4.45;;;11.20;84.80;;;;;;5033215;28;20049;-76
2023/05/01 06:32:31;;;;;;;11.07;4.18;;;11.40;84.60;;;;;;5033421;28;20428;-72
2023/05/01 06:34:57;;;;;;;9.30;4.20;;;11.50;84.60;;;;;;5033335;28;20087;-74
2023/05/01 06:37:22;;;;;;;9.20;4.13;;;11.60;84.10;;;;;;5033631;28;20026;-74
2023/05/01 06:39:48;;;;;;;10.50;3.78;;;11.70;83.50;;;;;;5015641;28;20317;-79
2023/05/01 06:42:15;;;;;;;9.73;3.67;;;11.80;83.10;;;;;;5015668;28;20037;-73
2023/05/01 06:44:41;;;;;;;13.73;4.60;;;11.90;82.80;;;;;;5033081;28;20048;-76
2023/05/01 06:47:07;;;;;;;13.32;3.70;;;12.10;83.20;;;;;;5015473;28;20602;-73
2023/05/01 06:49:33;;;;;;;14.88;4.43;;;12.20;82.20;;;;;;5033296;28;20128;-71
2023/05/01 06:51:59;;;;;;;14.00;3.38;;;12.40;81.90;;;;;;5032968;28;20034;-72
2023/05/01 06:54:25;;;;;;;8.43;4.05;;;12.60;81.50;;;;;;5032922;28;20033;-71
2023/05/01 06:56:52;;;;;;;8.90;3.90;;;12.80;81.60;;;;;;5032573;28;20048;-70
2023/05/01 06:59:18;;;;;;;13.85;3.90;;;12.90;80.40;;;;;;5032698;28;20363;-70
2023/05/01 07:01:43;;;;;;;11.40;3.90;;;13.20;79.90;;;;;;5033124;28;20040;-69
2023/05/01 07:04:09;;;;;;;8.15;3.50;;;13.40;78.20;;;;;;5032633;28;20512;-70
2023/05/01 07:06:36;;;;;;;14.20;4.35;;;13.80;78.00;;;;;;5032586;28;20750;-70
2023/05/01 07:09:02;;;;;;;15.55;6.90;;;14.00;76.80;;;;;;5032732;28;20033;-72
2023/05/01 07:11:28;;;;;;;10.73;3.63;;;14.20;76.30;;;;;;5032780;28;20475;-70
2023/05/01 07:13:54;;;;;;;8.75;3.35;;;14.30;75.10;;;;;;5032988;28;20040;-71
2023/05/01 07:16:20;;;;;;;7.07;2.90;;;14.60;75.70;;;;;;5032539;28;20052;-70
2023/05/01 07:18:46;;;;;;;6.95;2.95;;;15.00;75.60;;;;;;5032553;28;20037;-70
2023/05/01 07:21:11;;;;;;;8.80;3.03;;;15.30;73.50;;;;;;5032367;28;20121;-73
2023/05/01 07:23:37;;;;;;;7.03;2.78;;;15.60;72.10;;;;;;5013665;28;20041;-69
2023/05/01 07:26:04;;;;;;;8.05;2.88;;;15.90;72.10;;;;;;5014824;28;20025;-69
2023/05/01 07:28:30;;;;;;;5.90;2.35;;;16.40;71.60;;;;;;5032347;28;20101;-70
2023/05/01 07:30:55;;;;;;;5.25;2.65;;;16.80;68.40;;;;;;5032135;28;20145;-70
2023/05/01 07:33:24;;;;;;;9.82;3.35;;;17.50;69.50;;;;;;5014713;28;20338;-72
2023/05/01 07:35:49;;;;;;;9.02;3.13;;;18.00;66.70;;;;;;5032165;28;20068;-73
2023/05/01 07:38:16;;;;;;;14.73;6.38;;;18.60;65.10;;;;;;5014731;28;20503;-71
2023/05/01 07:40:41;;;;;;;5.40;2.90;;;18.70;63.20;;;;;;5032485;28;20033;-70
2023/05/01 07:43:10;;;;;;;8.77;2.88;;;19.20;63.70;;;;;;5032010;28;20095;-69
2023/05/01 07:45:37;;;;;;;7.55;2.67;;;19.80;61.60;;;;;;5032001;28;20041;-70
2023/05/01 07:48:03;;;;;;;6.22;2.50;;;20.30;60.80;;;;;;5031741;28;20044;-70
2023/05/01 07:50:29;;;;;;;11.82;2.83;;;20.50;58.80;;;;;;5031858;28;20463;-73
2023/05/01 07:52:57;;;;;;;7.20;2.55;;;20.60;58.80;;;;;;5031920;28;20086;-71
2023/05/01 07:55:24;;;;;;;7.57;2.67;;;20.60;57.30;;;;;;5032321;28;20017;-72
2023/05/01 07:57:50;;;;;;;10.73;2.70;;;20.90;57.40;;;;;;5031855;28;20072;-69
2023/05/01 08:00:16;;;;;;;5.90;2.88;;;20.70;56.60;;;;;;5014312;28;20076;-71
2023/05/01 08:02:42;;;;;;;4.65;2.20;;;20.70;56.40;;;;;;5031657;28;20040;-73
2023/05/01 08:05:09;;;;;;;4.53;2.20;;;20.90;55.60;;;;;;5031816;28;20045;-73
2023/05/01 08:07:34;;;;;;;6.53;3.15;;;20.80;55.00;;;;;;5014713;28;20309;-71
2023/05/01 08:10:00;;;;;;;6.88;2.88;;;21.30;54.60;;;;;;5031933;28;20052;-75
2023/05/01 08:12:27;;;;;;;5.57;2.45;;;21.30;53.60;;;;;;5014108;28;20029;-73
2023/05/01 08:14:53;;;;;;;6.80;3.10;;;21.80;53.90;;;;;;5031692;28;20030;-71
2023/05/01 08:17:19;;;;;;;9.43;3.03;;;22.30;52.80;;;;;;5031422;28;20316;-72
2023/05/01 08:19:44;;;;;;;7.65;2.80;;;22.50;52.10;;;;;;5031795;28;20014;-74
2023/05/01 08:22:11;;;;;;;8.95;2.75;;;22.70;51.60;;;;;;5028138;28;20164;-74
2023/05/01 08:24:37;;;;;;;4.75;2.55;;;23.00;51.20;;;;;;5032353;28;20136;-74
2023/05/01 08:27:03;;;;;;;7.53;3.08;;;23.00;51.10;;;;;;5032219;28;20172;-74
2023/05/01 08:29:29;;;;;;;9.23;2.63;;;23.40;51.00;;;;;;5011327;28;20136;-73
2023/05/01 08:31:57;;;;;;;5.55;2.67;;;23.60;50.30;;;;;;5012496;28;20041;-77
2023/05/01 08:34:23;;;;;;;9.38;2.58;;;23.90;49.00;;;;;;5012838;28;20018;-75
2023/05/01 08:36:49;;;;;;;7.10;3.20;;;24.60;49.80;;;;;;5012316;28;20235;-75
2023/05/01 08:39:14;;;;;;;9.10;3.05;;;25.10;48.20;;;;;;5012368;28;20026;-75
2023/05/01 08:41:44;;;;;;;6.97;2.40;;;25.60;47.40;;;;;;5011882;28;20371;-74
2023/05/01 08:44:11;;;;;;;7.07;2.50;;;25.60;46.70;;;;;;5010046;28;20030;-74
2023/05/01 08:46:47;;;;;;;7.27;2.70;;;26.10;45.90;;;;;;4992215;28;20077;-75
2023/05/01 08:49:16;;;;;;;8.90;3.00;;;26.70;45.80;;;;;;4992723;28;20081;-74
2023/05/01 08:51:46;;;;;;;5.63;2.47;;;26.60;44.20;;;;;;4992238;28;20038;-74
2023/05/01 08:54:13;;;;;;;8.63;2.70;;;27.20;44.40;;;;;;4992785;28;20085;-76
2023/05/01 08:56:42;;;;;;;6.18;2.92;;;27.70;42.60;;;;;;4992558;28;20114;-75
2023/05/01 08:59:09;;;;;;;7.00;3.45;;;27.90;42.20;;;;;;4991553;28;20022;-75
2023/05/01 09:01:37;;;;;;;4.35;2.22;;;27.70;41.90;;;;;;4993436;28;20038;-74
2023/05/01 09:04:05;;;;;;;9.32;2.70;;;28.20;41.90;;;;;;4991462;28;20035;-75
2023/05/01 09:06:31;;;;;;;8.07;2.80;;;28.80;41.70;;;;;;4992095;28;20495;-79
2023/05/01 09:08:58;;;;;;;9.70;3.30;;;28.40;40.10;;;;;;5001076;28;20042;-76
2023/05/01 09:11:24;;;;;;;6.85;2.95;;;28.80;41.00;;;;;;5011056;28;20042;-80
2023/05/01 09:13:51;;;;;;;8.10;3.67;;;29.80;39.70;;;;;;5012855;28;20022;-80
2023/05/01 09:16:18;;;;;;;5.88;3.63;;;29.50;39.20;;;;;;5011024;28;20041;-76
2023/05/01 09:18:44;;;;;;;9.27;3.30;;;30.20;38.80;;;;;;5011982;28;20054;-74
2023/05/01 09:21:11;;;;;;;7.60;3.33;;;29.70;37.50;;;;;;5011294;28;20038;-75
2023/05/01 09:23:36;;;;;;;3.67;2.50;;;29.80;38.50;;;;;;5011198;28;20038;-75
2023/05/01 09:26:06;;;;;;;6.13;2.60;;;29.90;38.40;;;;;;5009776;28;20022;-74
2023/05/01 09:28:45;;;;;;;6.00;2.75;;;29.50;37.30;;;;;;4992088;28;20468;-75
2023/05/01 09:31:21;;;;;;;5.32;2.50;;;29.40;37.70;;;;;;5010556;28;20467;-76
2023/05/01 09:34:01;;;;;;;7.82;3.80;;;29.40;38.00;;;;;;5010947;28;20030;-76
2023/05/01 09:36:29;;;;;;;8.30;2.80;;;29.40;38.40;;;;;;5011143;28;20030;-78
2023/05/01 09:39:02;;;;;;;6.30;3.10;;;29.70;37.90;;;;;;5014708;28;20034;-77
2023/05/01 09:41:31;;;;;;;10.35;4.38;;;30.20;37.80;;;;;;5012496;28;20026;-76
2023/05/01 09:43:58;;;;;;;6.53;2.80;;;30.30;37.00;;;;;;5011064;28;20030;-80
2023/05/01 09:46:25;;;;;;;6.85;3.15;;;30.80;37.50;;;;;;4994450;28;20026;-85
2023/05/01 09:49:02;;;;;;;6.40;2.80;;;30.70;36.00;;;;;;4990298;28;20042;-76
2023/05/01 09:51:32;;;;;;;6.18;2.78;;;31.40;36.80;;;;;;5008624;28;20141;-78
2023/05/01 09:54:03;;;;;;;5.50;2.65;;;31.40;35.40;;;;;;5015428;28;20034;-75
2023/05/01 09:56:31;;;;;;;5.57;2.80;;;30.50;36.00;;;;;;5010885;28;20049;-78
2023/05/01 09:59:12;;;;;;;5.93;3.35;;;29.90;35.30;;;;;;4995832;28;20026;-75
2023/05/01 10:01:44;;;;;;;5.20;2.75;;;29.20;36.50;;;;;;4996309;28;20042;-74
2023/05/01 10:04:09;;;;;;;6.55;2.63;;;29.70;36.80;;;;;;4996613;28;20026;-78
2023/05/01 10:06:36;;;;;;;7.20;2.42;;;29.60;36.60;;;;;;5015495;28;20034;-74
2023/05/01 10:09:03;;;;;;;6.28;2.67;;;28.50;36.80;;;;;;5006088;28;20042;-76
2023/05/01 10:11:29;;;;;;;3.83;2.38;;;29.10;36.80;;;;;;4995354;28;20050;-75
2023/05/01 10:14:06;;;;;;;4.28;2.40;;;28.50;36.90;;;;;;4978797;28;20022;-76
2023/05/01 10:16:34;;;;;;;6.57;3.20;;;28.80;37.40;;;;;;4995815;28;20425;-76
2023/05/01 10:19:01;;;;;;;7.45;3.00;;;29.40;36.70;;;;;;4993937;28;20129;-76
2023/05/01 10:21:27;;;;;;;6.88;2.40;;;28.80;36.60;;;;;;4995487;28;20046;-75
2023/05/01 10:23:54;;;;;;;6.00;3.15;;;28.10;37.20;;;;;;4995108;28;20079;-76
2023/05/01 10:26:19;;;;;;;4.18;2.85;;;27.60;38.30;;;;;;4995161;28;20035;-75
2023/05/01 10:28:47;;;;;;;7.07;2.85;;;26.50;38.70;;;;;;4995391;28;20037;-76
2023/05/01 10:31:14;;;;;;;4.78;2.45;;;26.30;40.10;;;;;;4994069;28;20046;-75
2023/05/01 10:33:41;;;;;;;6.63;2.35;;;26.20;40.00;;;;;;4994793;28;20031;-74
2023/05/01 10:36:12;;;;;;;6.57;2.95;;;25.80;40.50;;;;;;4978005;28;20030;-74
2023/05/01 10:38:37;;;;;;;4.15;2.47;;;25.20;40.90;;;;;;4995204;28;20449;-75
2023/05/01 10:41:05;;;;;;;9.35;2.90;;;25.70;41.10;;;;;;4996126;28;20135;-74
2023/05/01 10:43:31;;;;;;;8.00;3.33;;;25.70;41.10;;;;;;5015443;28;20040;-74
2023/05/01 10:46:09;;;;;;;7.65;3.38;;;25.50;41.20;;;;;;5014248;28;20037;-74
2023/05/01 10:48:46;;;;;;;9.57;3.00;;;25.20;41.70;;;;;;5012863;28;20026;-70
2023/05/01 10:51:16;;;;;;;7.55;2.83;;;24.20;42.70;;;;;;5013076;28;20038;-72
2023/05/01 10:53:44;;;;;;;4.70;2.30;;;24.60;44.00;;;;;;5014404;28;20034;-73
2023/05/01 10:56:25;;;;;;;5.40;2.53;;;24.70;43.70;;;;;;5014135;28;20036;-71
2023/05/01 10:59:04;;;;;;;5.22;2.47;;;24.60;43.00;;;;;;5014464;28;20030;-70
2023/05/01 11:01:31;;;;;;;4.57;2.85;;;23.90;43.10;;;;;;5013815;28;20053;-72
2023/05/01 11:03:59;;;;;;;7.65;2.70;;;23.70;43.80;;;;;;5013778;28;20033;-70
2023/05/01 11:06:25;;;;;;;;;;;23.20;44.70;;;;;;5014456;28;20519;-70
2023/05/01 11:08:50;;;;;;;7.47;2.80;;;23.30;45.10;;;;;;4996416;28;19921;-74
2023/05/01 11:11:20;;;;;;;7.75;2.30;;;23.60;44.70;;;;;;5010861;28;20460;-73
2023/05/01 11:14:09;;;;;;;6.10;2.47;;;23.70;44.30;;;;;;4993767;28;20416;-73
2023/05/01 11:16:38;;;;;;;7.03;2.53;;;23.70;44.00;;;;;;5013776;28;20096;-71
2023/05/01 11:19:10;;;;;;;3.55;1.73;;;23.70;44.70;;;;;;5013541;28;20526;-71
2023/05/01 11:21:37;;;;;;;5.30;1.98;;;23.00;44.20;;;;;;5013788;28;20037;-71
2023/05/01 11:24:04;;;;;;;5.00;2.17;;;22.60;44.70;;;;;;5013451;28;20088;-70
2023/05/01 11:26:30;;;;;;;6.68;2.42;;;22.60;45.50;;;;;;5013766;28;20044;-73
2023/05/01 11:28:59;;;;;;;6.30;2.67;;;22.70;45.30;;;;;;5012843;28;20121;-71
2023/05/01 11:31:26;;;;;;;5.10;2.40;;;22.80;45.10;;;;;;5012663;28;20107;-72
2023/05/01 11:33:55;;;;;;;4.40;2.03;;;22.60;45.60;;;;;;5012324;28;20053;-72
2023/05/01 11:36:21;;;;;;;6.25;2.63;;;22.60;45.10;;;;;;5012325;28;20041;-74
2023/05/01 11:38:50;;;;;;;7.32;3.20;;;22.40;44.60;;;;;;5012886;28;20474;-77
2023/05/01 11:41:22;;;;;;;9.35;2.63;;;22.40;44.80;;;;;;5012539;28;20141;-72
2023/05/01 11:43:52;;;;;;;5.47;2.00;;;22.50;45.10;;;;;;5013118;28;20451;-74
2023/05/01 11:46:29;;;;;;;5.97;3.13;;;22.70;45.30;;;;;;5012324;28;20026;-74
2023/05/01 11:48:57;;;;;;;4.95;2.05;;;22.40;45.70;;;;;;5012090;28;20036;-76
2023/05/01 11:51:23;;;;;;;5.90;3.00;;;22.60;45.80;;;;;;5011758;28;20363;-73
2023/05/01 11:54:10;;;;;;;7.30;2.45;;;22.60;45.90;;;;;;5012326;28;20129;-75
2023/05/01 11:56:36;;;;;;;7.15;2.95;;;22.60;46.00;;;;;;4994766;28;20125;-76
2023/05/01 11:59:09;;;;;;;5.53;2.20;;;22.60;46.00;;;;;;5027205;28;20289;-72
2023/05/01 12:01:37;;;;;;;8.30;3.70;;;22.40;46.40;;;;;;5033480;28;20099;-76
2023/05/01 12:04:03;;;;;;;6.30;2.22;;;22.50;46.10;;;;;;5032928;28;20108;-74
2023/05/01 12:06:39;;;;;;;4.88;1.83;;;22.50;45.40;;;;;;5032622;28;20421;-75
2023/05/01 12:09:07;;;;;;;9.93;2.15;;;22.60;45.30;;;;;;5014583;28;20037;-75
2023/05/01 12:11:33;;;;;;;;;;;22.80;45.20;;;;;;5027497;28;20108;-74
2023/05/01 12:13:59;;;;;;;4.07;2.13;;;22.80;45.60;;;;;;5012835;28;20369;-75
2023/05/01 12:16:24;;;;;;;5.50;2.03;;;22.50;45.10;;;;;;5013108;28;20033;-71
2023/05/01 12:18:51;;;;;;;4.07;1.85;;;22.10;46.30;;;;;;5012602;28;20104;-72
2023/05/01 12:21:17;;;;;;;6.55;1.92;;;21.90;47.00;;;;;;5012786;28;20100;-74
2023/05/01 12:23:42;;;;;;;3.85;2.10;;;21.80;47.30;;;;;;5012520;28;20456;-73
2023/05/01 12:26:19;;;;;;;4.88;2.20;;;21.80;47.20;;;;;;5012479;28;20040;-74
2023/05/01 12:28:56;;;;;;;5.03;1.92;;;22.00;47.10;;;;;;5012494;28;20422;-72
2023/05/01 12:31:22;;;;;;;4.80;1.85;;;22.10;47.40;;;;;;5032267;28;20487;-74
2023/05/01 12:33:57;;;;;;;5.50;2.08;;;22.20;47.40;;;;;;5032227;28;20026;-71
2023/05/01 12:36:24;;;;;;;3.70;1.60;;;22.30;47.00;;;;;;5032036;28;20686;-72
2023/05/01 12:39:08;;;;;;;4.30;1.87;;;22.40;46.30;;;;;;5007074;28;20124;-72
2023/05/01 12:41:49;;;;;;;6.43;2.08;;;22.20;47.10;;;;;;5017198;28;20124;-77
2023/05/01 12:44:25;;;;;;;15.05;6.38;;;22.50;47.50;;;;;;5032054;28;20403;-73
2023/05/01 12:47:00;;;;;;;6.10;1.95;;;22.70;47.20;;;;;;5014837;28;20021;-73
2023/05/01 12:49:27;;;;;;;3.13;1.30;;;22.60;46.40;;;;;;5031952;28;20041;-69
2023/05/01 12:51:55;;;;;;;2.67;1.10;;;22.40;46.10;;;;;;5031588;28;20501;-70